Portada
METAR-TAF:

METAR-TAF

Aeroports :

Wellington, Nova Zelanda

latitud: 41-20S, longitud: 174-48E, altitud: 12 m

Observació

L'informe es va fer fa 19 minuts, a les 09:00 UTC
Vent 16 kt del Sud/Sud-Oest
Temperatura 11°C
Humitat 71%
Pressió 1011 hPa
Visibilitat 10 km o més

METAR: NZWN 230900Z AUTO 20016KT 9999 FEW025/// 11/06 Q1011

Hora: 21:19 (09:19 UTC)

Pronòstic

L'informe es va fer fa 1 hora i 10 minuts, a les 08:09 UTC
Pronòstic vàlid del 23 a les 09 UTC al 24 a les 12 UTC
Vent 12 kt del Sud
Visibilitat 10 km o més
Escasses núvols a una alçada de 3500 ft
Evolucionant progressivament
l' 23 a les 16 UTC al 23 a les 18 UTC
Vent 5 kt del Nord/Nord-Est
Evolucionant progressivament
l' 23 a les 19 UTC al 23 a les 21 UTC
Vent 10 kt del Sud/Sud-Oest
Evolucionant progressivament
l' 24 a les 03 UTC al 24 a les 05 UTC
Vent 8 kt del Nord/Nord-Est

TAF: NZWN 230809Z 2309/2412 19012KT 9999 FEW035 BECMG 2316/2318 03005KT BECMG 2319/2321 21010KT BECMG 2403/2405 02008KT

Observacions i pronòstics meteorològics de més de 4000 aeroports (METAR i TAF).

Les estacions disponibles són els punts grocs i vermells al mapa.

Posi el ratolí al punt desitjat per veure el nom de l'estació.

Feu clic per veure les observacions i els pronòstics meteorològics.

Per canviar el mapa: feu clic els botons verds amb una creu de color negre per apropar; al botó verd amb un guió per allunyar la imatge; o en les fletxes verdes per a mapes adjacents.


METAR-TAF: